createdAt,value
2018-05-12T00:00:26.631Z,9.45
2018-05-12T00:01:29.131Z,11.35
2018-05-12T00:02:31.638Z,10.30
2018-05-12T00:03:34.159Z,11.00
2018-05-12T00:04:37.445Z,9.68
2018-05-12T00:05:40.714Z,9.73
2018-05-12T00:06:43.232Z,11.23
2018-05-12T00:07:45.728Z,9.20
2018-05-12T00:08:48.249Z,9.57
2018-05-12T00:09:51.534Z,9.70
2018-05-12T00:10:54.813Z,9.50
2018-05-12T00:11:58.102Z,9.85
2018-05-12T00:13:01.375Z,9.55
2018-05-12T00:14:04.669Z,9.63
2018-05-12T00:15:07.187Z,8.98
2018-05-12T00:16:09.685Z,9.13
2018-05-12T00:17:12.189Z,9.80
2018-05-12T00:18:15.455Z,9.75
2018-05-12T00:19:17.962Z,10.65
2018-05-12T00:20:20.483Z,9.73
2018-05-12T00:21:22.996Z,10.65
2018-05-12T00:22:26.272Z,9.95
2018-05-12T00:23:29.529Z,10.63
2018-05-12T00:24:32.044Z,9.90
2018-05-12T00:25:35.322Z,9.90
2018-05-12T00:26:38.575Z,11.32
2018-05-12T00:27:41.069Z,10.57
2018-05-12T00:28:43.576Z,10.52
2018-05-12T00:29:46.092Z,8.90
2018-05-12T00:30:48.607Z,10.00
2018-05-12T00:31:51.125Z,10.10
2018-05-12T00:32:53.645Z,10.82
2018-05-12T00:33:56.146Z,10.13
2018-05-12T00:34:58.653Z,9.60
2018-05-12T00:36:01.169Z,10.25
2018-05-12T00:37:03.678Z,9.95
2018-05-12T00:38:06.184Z,10.25
2018-05-12T00:39:09.466Z,11.05
2018-05-12T00:40:11.953Z,11.45
2018-05-12T00:41:15.257Z,10.50
2018-05-12T00:42:17.762Z,10.38
2018-05-12T00:43:20.267Z,10.77
2018-05-12T00:44:22.777Z,9.57
2018-05-12T00:45:25.289Z,10.95
2018-05-12T00:46:27.803Z,10.43
2018-05-12T00:47:30.308Z,10.85
2018-05-12T00:48:32.802Z,11.20
2018-05-12T00:49:35.299Z,11.27
2018-05-12T00:50:38.590Z,10.10
2018-05-12T00:51:41.104Z,11.10
2018-05-12T00:52:43.629Z,10.90
2018-05-12T00:53:46.907Z,12.05
2018-05-12T00:54:50.162Z,10.45
2018-05-12T00:55:52.670Z,10.25
2018-05-12T00:56:55.936Z,11.43
2018-05-12T00:57:58.441Z,10.88
2018-05-12T00:59:00.967Z,10.80
2018-05-12T01:00:03.470Z,10.15
2018-05-12T01:01:06.777Z,10.82
2018-05-12T01:02:09.302Z,11.73
2018-05-12T01:03:11.797Z,10.90
2018-05-12T01:04:15.059Z,10.93
2018-05-12T01:05:17.593Z,11.15
2018-05-12T01:06:20.103Z,10.20
2018-05-12T01:07:22.629Z,11.30
2018-05-12T01:08:25.126Z,10.82
2018-05-12T01:09:27.659Z,10.20
2018-05-12T01:10:30.168Z,11.48
2018-05-12T01:11:32.703Z,11.20
2018-05-12T01:12:35.211Z,11.02
2018-05-12T01:13:37.775Z,11.48
2018-05-12T01:14:40.248Z,11.68
2018-05-12T01:15:42.749Z,10.63
2018-05-12T01:16:45.268Z,10.48
2018-05-12T01:17:47.777Z,11.10
2018-05-12T01:18:50.283Z,10.75
2018-05-12T01:19:53.543Z,11.82
2018-05-12T01:20:56.032Z,11.07
2018-05-12T01:21:59.304Z,11.12
2018-05-12T01:23:01.831Z,10.95
2018-05-12T01:24:04.336Z,11.43
2018-05-12T01:25:07.612Z,11.48
2018-05-12T01:26:10.140Z,10.27
2018-05-12T01:27:12.636Z,11.50
2018-05-12T01:28:15.144Z,10.93
2018-05-12T01:29:17.641Z,10.48
2018-05-12T01:30:20.170Z,12.55
2018-05-12T01:31:22.676Z,9.52
2018-05-12T01:32:25.953Z,11.18
2018-05-12T01:33:28.493Z,10.60
2018-05-12T01:34:31.009Z,12.07
2018-05-12T01:35:34.305Z,11.35
2018-05-12T01:36:37.563Z,11.75
2018-05-12T01:37:40.052Z,11.80
2018-05-12T01:38:43.334Z,11.05
2018-05-12T01:39:46.617Z,11.80
2018-05-12T01:40:49.116Z,10.88
2018-05-12T01:41:51.612Z,12.30
2018-05-12T01:42:54.102Z,10.60
2018-05-12T01:43:56.615Z,11.25
2018-05-12T01:44:59.876Z,12.27
2018-05-12T01:46:03.157Z,12.00
2018-05-12T01:47:05.667Z,11.10
2018-05-12T01:48:08.210Z,11.65
2018-05-12T01:49:10.728Z,11.63
2018-05-12T01:50:13.355Z,12.18
2018-05-12T01:51:15.843Z,11.10
2018-05-12T01:52:19.092Z,12.30
2018-05-12T01:53:21.611Z,11.15
2018-05-12T01:54:24.102Z,11.20
2018-05-12T01:55:26.611Z,11.20
2018-05-12T01:56:29.114Z,11.38
2018-05-12T01:57:32.380Z,11.15
2018-05-12T01:58:34.881Z,11.38
2018-05-12T01:59:37.393Z,11.30
2018-05-12T02:00:39.905Z,11.80
2018-05-12T02:01:43.158Z,11.23
2018-05-12T02:02:45.662Z,11.10
2018-05-12T02:03:48.946Z,15.30
2018-05-12T02:04:51.509Z,12.30
2018-05-12T02:05:54.015Z,11.20
2018-05-12T02:06:56.517Z,10.55
2018-05-12T02:07:59.012Z,10.75
2018-05-12T02:09:01.505Z,11.95
2018-05-12T02:10:04.808Z,11.07
2018-05-12T02:11:08.079Z,11.63
2018-05-12T02:12:11.390Z,11.30
2018-05-12T02:13:13.907Z,11.30
2018-05-12T02:14:16.440Z,11.15
2018-05-12T02:15:18.964Z,11.82
2018-05-12T02:16:21.474Z,11.50
2018-05-12T02:17:23.973Z,11.18
2018-05-12T02:18:26.459Z,12.43
2018-05-12T02:19:28.973Z,12.37
2018-05-12T02:20:32.260Z,12.02
2018-05-12T02:21:35.530Z,11.65
2018-05-12T02:22:38.021Z,12.90
2018-05-12T02:23:41.292Z,12.45
2018-05-12T02:24:43.800Z,12.30
2018-05-12T02:25:46.326Z,11.50
2018-05-12T02:26:48.842Z,12.18
2018-05-12T02:27:51.334Z,12.00
2018-05-12T02:28:53.818Z,12.25
2018-05-12T02:29:56.302Z,12.40
2018-05-12T02:30:58.828Z,12.63
2018-05-12T02:32:01.317Z,11.73
2018-05-12T02:33:03.833Z,11.77
2018-05-12T02:34:07.088Z,11.90
2018-05-12T02:35:09.622Z,12.77
2018-05-12T02:36:12.119Z,12.05
2018-05-12T02:37:14.632Z,12.75
2018-05-12T02:38:17.902Z,11.55
2018-05-12T02:39:20.394Z,11.90
2018-05-12T02:40:23.674Z,12.93
2018-05-12T02:41:26.949Z,12.13
2018-05-12T02:42:29.457Z,11.73
2018-05-12T02:43:31.977Z,12.75
2018-05-12T02:44:34.484Z,11.75
2018-05-12T02:45:37.781Z,11.85
2018-05-12T02:46:40.338Z,11.95
2018-05-12T02:47:43.828Z,12.05
2018-05-12T02:48:47.106Z,11.60
2018-05-12T02:49:50.390Z,11.07
2018-05-12T02:50:52.923Z,12.00
2018-05-12T02:51:55.421Z,12.85
2018-05-12T02:52:57.926Z,12.07
2018-05-12T02:54:01.206Z,14.10
2018-05-12T02:55:04.482Z,12.43
2018-05-12T02:56:07.772Z,13.55
2018-05-12T02:57:10.297Z,13.00
2018-05-12T02:58:12.816Z,14.15
2018-05-12T02:59:16.102Z,12.88
2018-05-12T03:00:18.605Z,14.18
2018-05-12T03:01:21.122Z,13.45
2018-05-12T03:02:23.626Z,14.23
2018-05-12T03:03:26.906Z,14.48
2018-05-12T03:04:29.422Z,15.25
2018-05-12T03:05:31.917Z,15.48
2018-05-12T03:06:34.427Z,15.02
2018-05-12T03:07:37.693Z,15.68
2018-05-12T03:08:40.220Z,15.95
2018-05-12T03:09:42.711Z,16.35
2018-05-12T03:10:45.220Z,15.65
2018-05-12T03:11:48.500Z,15.52
2018-05-12T03:12:51.795Z,16.65
2018-05-12T03:13:55.062Z,15.80
2018-05-12T03:14:57.550Z,14.98
2018-05-12T03:16:00.827Z,16.02
2018-05-12T03:17:03.332Z,17.10
2018-05-12T03:18:05.835Z,17.10
2018-05-12T03:19:08.337Z,17.55
2018-05-12T03:20:10.872Z,17.20
2018-05-12T03:21:13.356Z,16.42
2018-05-12T03:22:15.846Z,17.60
2018-05-12T03:23:18.357Z,18.98
2018-05-12T03:24:20.850Z,19.92
2018-05-12T03:25:23.370Z,18.27
2018-05-12T03:26:25.970Z,17.75
2018-05-12T03:27:28.479Z,18.08
2018-05-12T03:28:30.985Z,17.45
2018-05-12T03:29:33.502Z,17.00
2018-05-12T03:30:35.999Z,18.75
2018-05-12T03:31:38.531Z,18.70
2018-05-12T03:32:41.014Z,17.98
2018-05-12T03:33:43.516Z,18.40
2018-05-12T03:34:46.036Z,18.58
2018-05-12T03:35:48.541Z,17.48
2018-05-12T03:36:51.034Z,18.67
2018-05-12T03:37:53.523Z,18.77
2018-05-12T03:38:56.830Z,16.95
2018-05-12T03:39:59.322Z,17.98
2018-05-12T03:41:01.817Z,19.80
2018-05-12T03:42:04.311Z,18.30
2018-05-12T03:43:06.819Z,19.65
2018-05-12T03:44:09.340Z,19.33
2018-05-12T03:45:11.895Z,19.67
2018-05-12T03:46:14.399Z,18.55
2018-05-12T03:47:16.922Z,19.65
2018-05-12T03:48:19.432Z,19.12
2018-05-12T03:49:21.942Z,20.40
2018-05-12T03:50:24.462Z,21.00
2018-05-12T03:51:26.945Z,21.52
2018-05-12T03:52:29.445Z,19.23
2018-05-12T03:53:31.937Z,18.83
2018-05-12T03:54:34.458Z,21.52
2018-05-12T03:55:37.729Z,21.12
2018-05-12T03:56:40.227Z,22.67
2018-05-12T03:57:43.496Z,21.33
2018-05-12T03:58:46.003Z,22.25
2018-05-12T03:59:48.517Z,22.80
2018-05-12T04:00:51.024Z,19.00
2018-05-12T04:01:54.299Z,19.40
2018-05-12T04:02:56.813Z,19.60
2018-05-12T04:03:59.319Z,20.20
2018-05-12T04:05:13.721Z,21.45
2018-05-12T04:06:28.078Z,19.15
2018-05-12T04:07:42.546Z,20.95
2018-05-12T04:08:56.979Z,21.83
2018-05-12T04:10:11.484Z,20.08
2018-05-12T04:12:51.545Z,21.83
2018-05-12T04:13:54.045Z,22.05
2018-05-12T04:14:57.310Z,20.55
2018-05-12T04:15:59.834Z,20.92
2018-05-12T04:17:02.324Z,19.85
2018-05-12T04:18:06.616Z,18.67
2018-05-12T04:19:09.129Z,18.98
2018-05-12T04:20:11.676Z,20.85
2018-05-12T04:21:14.193Z,20.45
2018-05-12T04:22:17.472Z,20.58
2018-05-12T04:23:19.993Z,19.55
2018-05-12T04:24:22.516Z,20.98
2018-05-12T04:25:25.809Z,17.75
2018-05-12T04:26:29.066Z,18.23
2018-05-12T04:27:31.579Z,14.82
2018-05-12T04:28:34.860Z,14.95
2018-05-12T04:29:38.148Z,14.25
2018-05-12T04:30:41.443Z,13.75
2018-05-12T04:31:43.949Z,13.05
2018-05-12T04:32:46.464Z,13.65
2018-05-12T04:33:48.962Z,12.70
2018-05-12T04:34:51.491Z,12.20
2018-05-12T04:35:54.012Z,12.77
2018-05-12T04:36:56.524Z,12.27
2018-05-12T04:37:59.026Z,11.90
2018-05-12T04:39:02.310Z,11.70
2018-05-12T04:40:05.579Z,12.52
2018-05-12T04:41:08.081Z,10.45
2018-05-12T04:42:11.378Z,11.12
2018-05-12T04:43:13.904Z,11.80
2018-05-12T04:44:16.424Z,10.35
2018-05-12T04:45:18.935Z,10.73
2018-05-12T04:46:21.430Z,9.85
2018-05-12T04:47:23.969Z,10.75
2018-05-12T04:48:26.479Z,11.07
2018-05-12T04:49:29.797Z,11.35
2018-05-12T04:50:32.315Z,10.30
2018-05-12T04:51:34.815Z,9.80
2018-05-12T04:52:38.084Z,9.55
2018-05-12T04:53:40.579Z,10.93
2018-05-12T04:54:43.880Z,9.20
2018-05-12T04:55:46.398Z,11.10
2018-05-12T04:56:48.899Z,10.52
2018-05-12T04:57:52.210Z,11.27
2018-05-12T04:58:54.734Z,10.60
2018-05-12T04:59:57.231Z,10.65
2018-05-12T05:01:00.541Z,10.63
2018-05-12T05:02:03.056Z,9.80
2018-05-12T05:03:05.550Z,9.70
2018-05-12T05:04:08.068Z,10.95
2018-05-12T05:05:10.583Z,10.73
2018-05-12T05:06:13.085Z,10.48
2018-05-12T05:07:15.584Z,11.27
2018-05-12T05:08:18.115Z,10.85
2018-05-12T05:09:21.386Z,10.52
2018-05-12T05:10:24.666Z,10.30
2018-05-12T05:11:27.183Z,10.35
2018-05-12T05:12:29.700Z,10.73
2018-05-12T05:13:32.220Z,10.07
2018-05-12T05:14:34.733Z,8.70
2018-05-12T05:15:37.250Z,10.07
2018-05-12T05:16:40.516Z,9.80
2018-05-12T05:17:43.778Z,8.67
2018-05-12T05:18:46.330Z,9.63
2018-05-12T05:19:48.845Z,9.40
2018-05-12T05:20:51.361Z,8.90
2018-05-12T05:21:53.859Z,9.37
2018-05-12T05:22:56.357Z,9.23
2018-05-12T05:23:58.862Z,9.47
2018-05-12T05:25:01.369Z,10.00
2018-05-12T05:26:03.866Z,9.50
2018-05-12T05:27:06.367Z,9.90
2018-05-12T05:28:08.883Z,9.03
2018-05-12T05:29:11.454Z,9.73
2018-05-12T05:30:13.970Z,8.70
2018-05-12T05:31:17.242Z,9.97
2018-05-12T05:32:20.545Z,9.20
2018-05-12T05:33:23.809Z,9.10
2018-05-12T05:34:26.325Z,8.70
2018-05-12T05:35:28.837Z,8.70
2018-05-12T05:36:31.346Z,9.43
2018-05-12T05:37:34.608Z,10.40
2018-05-12T05:38:37.863Z,8.77
2018-05-12T05:39:40.388Z,8.63
2018-05-12T05:40:43.672Z,8.33
2018-05-12T05:41:46.974Z,7.90
2018-05-12T05:42:50.225Z,8.50
2018-05-12T05:43:52.721Z,9.03
2018-05-12T05:44:55.250Z,8.40
2018-05-12T05:45:57.752Z,8.20
2018-05-12T05:47:00.268Z,9.40
2018-05-12T05:48:02.778Z,8.00
2018-05-12T05:49:05.292Z,8.27
2018-05-12T05:50:07.817Z,9.20
2018-05-12T05:51:10.316Z,9.67
2018-05-12T05:52:13.578Z,8.10
2018-05-12T05:53:16.089Z,8.27
2018-05-12T05:54:18.584Z,8.70
2018-05-12T05:55:21.105Z,8.40
2018-05-12T05:56:23.592Z,8.60
2018-05-12T05:57:26.839Z,8.60
2018-05-12T05:58:29.348Z,9.00
2018-05-12T05:59:32.594Z,8.17
2018-05-12T06:00:35.123Z,9.00
2018-05-12T06:01:37.639Z,9.20
2018-05-12T06:02:40.137Z,9.13
2018-05-12T06:03:43.404Z,9.50
2018-05-12T06:04:45.900Z,8.50
2018-05-12T06:05:49.168Z,8.43
2018-05-12T06:06:53.206Z,9.00
2018-05-12T06:07:56.465Z,8.37
2018-05-12T06:08:58.967Z,9.37
2018-05-12T06:10:01.473Z,8.70
2018-05-12T06:11:03.991Z,8.37
2018-05-12T06:12:07.255Z,8.60
2018-05-12T06:13:09.749Z,8.83
2018-05-12T06:14:13.019Z,9.00
2018-05-12T06:15:15.638Z,9.93
2018-05-12T06:16:18.176Z,9.37
2018-05-12T06:17:21.489Z,7.90
2018-05-12T06:18:24.003Z,8.43
2018-05-12T06:19:26.531Z,8.40
2018-05-12T06:20:29.046Z,8.83
2018-05-12T06:21:31.557Z,7.63
2018-05-12T06:22:34.845Z,8.57
2018-05-12T06:23:38.112Z,8.13
2018-05-12T06:24:40.605Z,8.30
2018-05-12T06:25:43.900Z,8.33
2018-05-12T06:26:46.417Z,8.60
2018-05-12T06:27:48.994Z,7.93
2018-05-12T06:28:51.426Z,8.97
2018-05-12T06:29:53.949Z,7.93
2018-05-12T06:30:56.482Z,8.40
2018-05-12T06:31:58.977Z,8.57
2018-05-12T06:33:01.466Z,8.53
2018-05-12T06:34:03.963Z,9.00
2018-05-12T06:35:06.481Z,8.37
2018-05-12T06:36:08.987Z,8.17
2018-05-12T06:37:12.303Z,7.77
2018-05-12T06:38:14.791Z,7.70
2018-05-12T06:39:17.315Z,7.40
2018-05-12T06:40:20.592Z,7.90
2018-05-12T06:41:23.139Z,8.40
2018-05-12T06:42:25.625Z,7.80
2018-05-12T06:43:28.133Z,7.37
2018-05-12T06:44:31.421Z,6.90
2018-05-12T06:45:33.935Z,8.60
2018-05-12T06:46:36.445Z,8.50
2018-05-12T06:47:39.754Z,7.60
2018-05-12T06:48:42.253Z,6.80
2018-05-12T06:49:44.759Z,8.07
2018-05-12T06:50:47.393Z,7.30
2018-05-12T06:51:49.827Z,7.40
2018-05-12T06:52:53.137Z,7.80
2018-05-12T06:53:56.337Z,7.50
2018-05-12T06:54:58.853Z,7.67
2018-05-12T06:56:01.362Z,7.20
2018-05-12T06:57:03.866Z,7.30
2018-05-12T06:58:06.602Z,6.70
2018-05-12T06:59:09.145Z,7.60
2018-05-12T07:00:11.664Z,7.70
2018-05-12T07:01:14.178Z,7.80
2018-05-12T07:02:17.497Z,7.43
2018-05-12T07:03:21.330Z,6.60
2018-05-12T07:04:23.836Z,7.40
2018-05-12T07:05:26.364Z,7.70
2018-05-12T07:06:29.611Z,8.00
2018-05-12T07:07:32.881Z,7.20
2018-05-12T07:08:35.392Z,7.40
2018-05-12T07:09:37.920Z,7.73
2018-05-12T07:10:40.428Z,7.30
2018-05-12T07:11:42.924Z,7.33
2018-05-12T07:12:45.450Z,7.80
2018-05-12T07:13:48.724Z,7.10
2018-05-12T07:14:51.257Z,7.10
2018-05-12T07:15:54.513Z,7.63
2018-05-12T07:16:57.329Z,6.93
2018-05-12T07:17:59.832Z,7.10
2018-05-12T07:19:02.342Z,7.40
2018-05-12T07:20:04.853Z,7.97
2018-05-12T07:21:07.359Z,8.87
2018-05-12T07:22:10.639Z,7.70
2018-05-12T07:23:13.929Z,7.73
2018-05-12T07:24:16.449Z,7.20
2018-05-12T07:25:18.963Z,7.27
2018-05-12T07:26:23.017Z,6.37
2018-05-12T07:27:25.559Z,7.10
2018-05-12T07:28:28.820Z,7.17
2018-05-12T07:29:32.853Z,7.37
2018-05-12T07:30:36.119Z,6.90
2018-05-12T07:31:38.639Z,7.50
2018-05-12T07:32:41.135Z,6.80
2018-05-12T07:33:43.652Z,7.37
2018-05-12T07:34:46.913Z,6.47
2018-05-12T07:35:49.484Z,7.30
2018-05-12T07:36:51.988Z,7.13
2018-05-12T07:37:54.507Z,7.00
2018-05-12T07:38:57.134Z,6.50
2018-05-12T07:39:59.606Z,7.50
2018-05-12T07:41:02.108Z,6.83
2018-05-12T07:42:04.631Z,6.37
2018-05-12T07:43:07.960Z,6.37
2018-05-12T07:44:10.567Z,6.50
2018-05-12T07:45:13.901Z,6.70
2018-05-12T07:46:16.396Z,7.33
2018-05-12T07:47:18.908Z,6.80
2018-05-12T07:48:22.166Z,5.97
2018-05-12T07:49:24.665Z,5.90
2018-05-12T07:50:27.200Z,6.90
2018-05-12T07:51:29.749Z,6.53
2018-05-12T07:52:33.015Z,6.17
2018-05-12T07:53:36.313Z,5.40
2018-05-12T07:54:38.830Z,7.60
2018-05-12T07:55:41.365Z,6.00
2018-05-12T07:56:43.854Z,5.73
2018-05-12T07:57:46.570Z,6.33
2018-05-12T07:58:49.841Z,5.63
2018-05-12T07:59:52.349Z,6.97
2018-05-12T08:00:55.625Z,6.67
2018-05-12T08:01:58.136Z,5.87
2018-05-12T08:03:00.645Z,6.70
2018-05-12T08:04:03.149Z,6.00
2018-05-12T08:05:06.452Z,6.37
2018-05-12T08:06:08.974Z,6.30
2018-05-12T08:07:11.482Z,6.97
2018-05-12T08:08:14.749Z,7.30
2018-05-12T08:09:18.756Z,6.90
2018-05-12T08:10:21.297Z,5.73
2018-05-12T08:11:23.800Z,5.20
2018-05-12T08:12:26.324Z,6.40
2018-05-12T08:13:28.839Z,6.00
2018-05-12T08:14:32.117Z,5.75
2018-05-12T08:15:34.640Z,5.67
2018-05-12T08:16:37.165Z,5.37
2018-05-12T08:17:39.669Z,5.57
2018-05-12T08:18:42.200Z,5.67
2018-05-12T08:19:44.717Z,5.53
2018-05-12T08:20:47.224Z,5.10
2018-05-12T08:21:49.718Z,4.90
2018-05-12T08:22:53.005Z,5.30
2018-05-12T08:23:56.277Z,5.33
2018-05-12T08:24:58.779Z,4.93
2018-05-12T08:26:02.065Z,4.97
2018-05-12T08:27:04.614Z,4.80
2018-05-12T08:28:07.096Z,5.10
2018-05-12T08:29:09.624Z,6.07
2018-05-12T08:30:12.152Z,5.43
2018-05-12T08:31:15.458Z,5.43
2018-05-12T08:32:17.961Z,4.97
2018-05-12T08:33:20.487Z,5.30
2018-05-12T08:34:23.031Z,5.30
2018-05-12T08:35:25.559Z,5.90
2018-05-12T08:36:28.090Z,5.87
2018-05-12T08:37:31.365Z,5.27
2018-05-12T08:38:34.648Z,6.60
2018-05-12T08:39:37.144Z,6.10
2018-05-12T08:40:40.409Z,6.53
2018-05-12T08:41:42.925Z,5.50
2018-05-12T08:42:45.445Z,5.80
2018-05-12T08:43:47.931Z,5.43
2018-05-12T08:44:51.210Z,5.20
2018-05-12T08:45:54.487Z,5.43
2018-05-12T08:46:56.975Z,5.47
2018-05-12T08:47:59.483Z,5.20
2018-05-12T08:49:01.998Z,5.60
2018-05-12T08:50:04.496Z,6.20
2018-05-12T08:51:07.865Z,6.40
2018-05-12T08:52:10.369Z,6.37
2018-05-12T08:53:12.873Z,5.83
2018-05-12T08:54:15.388Z,5.47
2018-05-12T08:55:18.679Z,4.90
2018-05-12T08:56:21.981Z,4.53
2018-05-12T08:57:25.435Z,4.53
2018-05-12T08:58:28.059Z,4.23
2018-05-12T08:59:30.569Z,4.53
2018-05-12T09:00:33.096Z,5.23
2018-05-12T09:01:35.584Z,4.70
2018-05-12T09:02:38.096Z,4.67
2018-05-12T09:03:40.604Z,5.50
2018-05-12T09:04:44.060Z,4.27
2018-05-12T09:05:46.625Z,3.80
2018-05-12T09:06:49.105Z,3.73
2018-05-12T09:07:51.615Z,4.37
2018-05-12T09:08:54.154Z,5.40
2018-05-12T09:09:56.756Z,5.97
2018-05-12T09:10:59.258Z,5.10
2018-05-12T09:12:01.772Z,5.07
2018-05-12T09:13:05.053Z,5.03
2018-05-12T09:14:07.555Z,6.20
2018-05-12T09:15:10.069Z,6.10
2018-05-12T09:16:12.653Z,6.50
2018-05-12T09:17:15.155Z,5.83
2018-05-12T09:18:18.461Z,5.10
2018-05-12T09:19:21.010Z,5.43
2018-05-12T09:20:23.500Z,5.87
2018-05-12T09:21:26.035Z,5.30
2018-05-12T09:22:28.522Z,5.40
2018-05-12T09:23:31.816Z,5.87
2018-05-12T09:24:35.077Z,5.70
2018-05-12T09:25:37.590Z,6.10
2018-05-12T09:26:40.115Z,5.50
2018-05-12T09:27:42.624Z,5.10
2018-05-12T09:28:45.149Z,4.90
2018-05-12T09:29:47.665Z,4.70
2018-05-12T09:30:50.178Z,4.90
2018-05-12T09:31:52.692Z,4.97
2018-05-12T09:32:55.964Z,5.40
2018-05-12T09:33:59.992Z,5.63
2018-05-12T09:35:03.296Z,5.00
2018-05-12T09:36:05.798Z,6.87
2018-05-12T09:37:08.311Z,6.47
2018-05-12T09:38:11.638Z,6.90
2018-05-12T09:39:14.233Z,6.93
2018-05-12T09:40:16.738Z,6.87
2018-05-12T09:41:19.231Z,6.70
2018-05-12T09:42:21.951Z,6.70
2018-05-12T09:43:24.485Z,6.70
2018-05-12T09:44:26.997Z,7.30
2018-05-12T09:45:29.499Z,6.40
2018-05-12T09:46:32.759Z,6.77
2018-05-12T09:47:35.266Z,5.23
2018-05-12T09:48:38.535Z,6.53
2018-05-12T09:49:41.821Z,6.63
2018-05-12T09:50:45.912Z,6.70
2018-05-12T09:51:48.462Z,8.43
2018-05-12T09:52:50.981Z,7.40
2018-05-12T09:53:54.262Z,7.17
2018-05-12T09:54:56.778Z,5.60
2018-05-12T09:55:59.275Z,4.57
2018-05-12T09:57:01.808Z,4.50
2018-05-12T09:58:04.324Z,5.27
2018-05-12T09:59:06.865Z,4.77
2018-05-12T10:00:09.389Z,4.90
2018-05-12T10:01:11.893Z,5.30
2018-05-12T10:02:14.467Z,5.50
2018-05-12T10:03:16.972Z,5.50
2018-05-12T10:04:19.487Z,5.90
2018-05-12T10:05:22.774Z,6.07
2018-05-12T10:06:26.032Z,6.60
2018-05-12T10:07:28.516Z,5.70
2018-05-12T10:08:31.036Z,5.40
2018-05-12T10:09:33.589Z,6.33
2018-05-12T10:10:36.088Z,6.10
2018-05-12T10:11:38.631Z,6.33
2018-05-12T10:12:41.174Z,6.73
2018-05-12T10:13:43.675Z,6.37
2018-05-12T10:14:46.193Z,6.47
2018-05-12T10:15:48.743Z,6.10
2018-05-12T10:16:51.254Z,5.87
2018-05-12T10:17:54.531Z,5.43
2018-05-12T10:18:57.039Z,5.77
2018-05-12T10:20:00.303Z,5.93
2018-05-12T10:21:02.823Z,5.40
2018-05-12T10:22:05.343Z,5.57
2018-05-12T10:23:08.639Z,5.97
2018-05-12T10:24:12.055Z,5.63
2018-05-12T10:25:14.564Z,6.30
2018-05-12T10:26:17.179Z,5.50
2018-05-12T10:27:19.657Z,6.83
2018-05-12T10:28:22.172Z,7.30
2018-05-12T10:29:24.692Z,7.73
2018-05-12T10:30:27.981Z,9.30
2018-05-12T10:31:32.242Z,9.10
2018-05-12T10:32:34.745Z,7.57
2018-05-12T10:33:38.039Z,7.07
2018-05-12T10:34:41.324Z,7.40
2018-05-12T10:35:43.835Z,6.40
2018-05-12T10:36:46.508Z,6.20
2018-05-12T10:37:49.109Z,7.50
2018-05-12T10:38:51.693Z,7.20
2018-05-12T10:39:54.183Z,7.77
2018-05-12T10:40:57.457Z,6.60
2018-05-12T10:42:00.006Z,6.90
2018-05-12T10:43:02.540Z,7.60
2018-05-12T10:44:05.057Z,8.07
2018-05-12T10:45:07.599Z,6.73
2018-05-12T10:46:10.147Z,6.43
2018-05-12T10:47:12.696Z,6.77
2018-05-12T10:48:16.467Z,6.60
2018-05-12T10:49:19.981Z,6.30
2018-05-12T10:50:22.500Z,6.70
2018-05-12T10:51:25.046Z,7.10
2018-05-12T10:52:28.327Z,6.97
2018-05-12T10:53:31.611Z,4.97
2018-05-12T10:54:34.913Z,4.57
2018-05-12T10:55:38.190Z,4.40
2018-05-12T10:56:42.231Z,4.77
2018-05-12T10:57:44.869Z,3.93
2018-05-12T10:58:48.155Z,4.07
2018-05-12T10:59:51.432Z,3.80
2018-05-12T11:00:53.949Z,4.30
2018-05-12T11:01:56.521Z,4.60
2018-05-12T11:02:58.993Z,4.27
2018-05-12T11:04:01.518Z,4.90
2018-05-12T11:05:04.009Z,4.90
2018-05-12T11:06:07.285Z,4.20
2018-05-12T11:07:09.877Z,4.77
2018-05-12T11:08:13.168Z,5.80
2018-05-12T11:09:16.573Z,5.40
2018-05-12T11:10:19.131Z,5.73
2018-05-12T11:11:22.398Z,5.00
2018-05-12T11:12:25.705Z,4.27
2018-05-12T11:13:29.907Z,5.50
2018-05-12T11:14:33.175Z,6.03
2018-05-12T11:15:35.794Z,6.77
2018-05-12T11:16:38.360Z,6.70
2018-05-12T11:17:40.893Z,6.97
2018-05-12T11:18:43.422Z,5.80
2018-05-12T11:19:45.944Z,5.77
2018-05-12T11:20:49.281Z,5.90
2018-05-12T11:21:51.895Z,5.73
2018-05-12T11:22:55.103Z,5.47
2018-05-12T11:23:58.380Z,6.07
2018-05-12T11:25:01.649Z,6.53
2018-05-12T11:26:04.176Z,7.00
2018-05-12T11:27:07.969Z,6.90
2018-05-12T11:28:10.549Z,6.90
2018-05-12T11:29:13.066Z,8.13
2018-05-12T11:30:15.596Z,6.80
2018-05-12T11:31:18.136Z,7.10
2018-05-12T11:32:20.672Z,6.83
2018-05-12T11:33:23.221Z,7.87
2018-05-12T11:34:25.757Z,8.17
2018-05-12T11:35:28.271Z,6.80
2018-05-12T11:36:30.824Z,7.20
2018-05-12T11:37:33.328Z,5.77
2018-05-12T11:38:35.870Z,7.70
2018-05-12T11:39:38.380Z,7.30
2018-05-12T11:40:40.912Z,8.20
2018-05-12T11:41:43.434Z,6.60
2018-05-12T11:42:46.709Z,6.87
2018-05-12T11:43:49.268Z,7.80
2018-05-12T11:44:52.504Z,7.57
2018-05-12T11:45:55.018Z,7.43
2018-05-12T11:46:57.540Z,8.10
2018-05-12T11:48:00.031Z,7.97
2018-05-12T11:49:02.545Z,8.20
2018-05-12T11:50:05.100Z,7.60
2018-05-12T11:51:07.579Z,8.43
2018-05-12T11:52:10.117Z,8.60
2018-05-12T11:53:12.642Z,9.47
2018-05-12T11:54:15.994Z,8.20
2018-05-12T11:55:18.512Z,7.70
2018-05-12T11:56:21.043Z,7.40
2018-05-12T11:57:23.581Z,8.80
2018-05-12T11:58:26.086Z,7.50
2018-05-12T11:59:28.642Z,8.77
2018-05-12T12:00:31.173Z,9.07
2018-05-12T12:01:34.541Z,7.90
2018-05-12T12:02:37.071Z,7.13
2018-05-12T12:03:39.676Z,8.93
2018-05-12T12:04:42.132Z,9.03
2018-05-12T12:05:44.648Z,9.13
2018-05-12T12:06:47.173Z,8.37
2018-05-12T12:07:49.696Z,8.67
2018-05-12T12:08:52.197Z,8.50
2018-05-12T12:09:54.722Z,7.57
2018-05-12T12:10:58.016Z,8.30
2018-05-12T12:12:01.394Z,9.60
2018-05-12T12:13:04.681Z,7.20
2018-05-12T12:14:07.953Z,7.10
2018-05-12T12:15:10.544Z,7.80
2018-05-12T12:16:13.817Z,7.20
2018-05-12T12:17:16.370Z,6.50
2018-05-12T12:18:18.911Z,7.63
2018-05-12T12:19:21.450Z,6.70
2018-05-12T12:20:25.576Z,7.93
2018-05-12T12:21:28.071Z,5.90
2018-05-12T12:22:30.569Z,5.43
2018-05-12T12:23:33.080Z,5.70
2018-05-12T12:24:35.620Z,5.10
2018-05-12T12:25:38.916Z,5.03
2018-05-12T12:26:42.201Z,5.27
2018-05-12T12:27:44.713Z,3.73
2018-05-12T12:28:48.127Z,6.70
2018-05-12T12:29:50.650Z,6.70
2018-05-12T12:30:53.931Z,6.30
2018-05-12T12:31:56.575Z,6.93
2018-05-12T12:32:59.072Z,5.47
2018-05-12T12:34:01.621Z,4.97
2018-05-12T12:35:04.156Z,6.50
2018-05-12T12:36:06.789Z,5.60
2018-05-12T12:37:10.144Z,6.07
2018-05-12T12:38:12.685Z,5.37
2018-05-12T12:39:15.188Z,4.37
2018-05-12T12:40:17.730Z,4.53
2018-05-12T12:41:20.249Z,5.10
2018-05-12T12:42:22.770Z,5.13
2018-05-12T12:43:25.263Z,5.00
2018-05-12T12:44:27.779Z,4.27
2018-05-12T12:45:31.068Z,4.57
2018-05-12T12:46:34.375Z,5.40
2018-05-12T12:47:36.868Z,5.60
2018-05-12T12:48:39.387Z,5.20
2018-05-12T12:49:42.643Z,5.70
2018-05-12T12:50:45.161Z,4.73
2018-05-12T12:51:48.538Z,5.43
2018-05-12T12:52:51.013Z,4.73
2018-05-12T12:53:54.275Z,4.47
2018-05-12T12:54:56.777Z,4.60
2018-05-12T12:56:00.265Z,4.40
2018-05-12T12:57:03.545Z,4.60
2018-05-12T12:58:06.049Z,4.37
2018-05-12T12:59:08.545Z,5.03
2018-05-12T13:00:11.076Z,5.17
2018-05-12T13:01:13.598Z,4.20
2018-05-12T13:02:16.276Z,5.73
2018-05-12T13:03:18.781Z,5.57
2018-05-12T13:04:21.348Z,4.77
2018-05-12T13:05:23.837Z,4.90
2018-05-12T13:06:27.089Z,5.00
2018-05-12T13:07:29.627Z,4.90
2018-05-12T13:08:32.118Z,4.60
2018-05-12T13:09:34.628Z,4.50
2018-05-12T13:10:37.945Z,4.00
2018-05-12T13:11:40.508Z,4.27
2018-05-12T13:12:42.941Z,4.60
2018-05-12T13:13:45.470Z,4.30
2018-05-12T13:14:47.991Z,4.50
2018-05-12T13:15:51.359Z,4.50
2018-05-12T13:16:53.790Z,4.30
2018-05-12T13:17:56.309Z,4.27
2018-05-12T13:18:59.567Z,3.80
2018-05-12T13:20:02.138Z,4.30
2018-05-12T13:21:05.367Z,3.90
2018-05-12T13:22:08.688Z,4.47
2018-05-12T13:23:11.228Z,3.40
2018-05-12T13:24:14.490Z,4.70
2018-05-12T13:25:17.016Z,4.20
2018-05-12T13:26:19.540Z,4.57
2018-05-12T13:27:22.064Z,4.30
2018-05-12T13:28:24.593Z,4.43
2018-05-12T13:29:27.099Z,4.00
2018-05-12T13:30:29.632Z,4.27
2018-05-12T13:31:32.908Z,4.50
2018-05-12T13:32:35.419Z,4.80
2018-05-12T13:33:38.040Z,4.93
2018-05-12T13:34:40.504Z,4.60
2018-05-12T13:35:43.032Z,4.27
2018-05-12T13:36:45.573Z,4.10
2018-05-12T13:37:48.875Z,3.90
2018-05-12T13:38:52.187Z,4.10
2018-05-12T13:39:54.726Z,4.10
2018-05-12T13:40:57.240Z,4.40
2018-05-12T13:41:59.731Z,4.60
2018-05-12T13:43:02.248Z,4.53
2018-05-12T13:44:05.550Z,4.50
2018-05-12T13:45:08.062Z,4.80
2018-05-12T13:46:10.616Z,18.90
2018-05-12T13:47:13.119Z,7.33
2018-05-12T13:48:15.644Z,8.40